Time;durP1;ratioP1;P1;durP2;ratioP2;P2;SDS_P1;SDS_P2;PMS_P1;PMS_P2;Temp;Humidity;BMP_temperature;BMP_pressure;BME280_temperature;BME280_humidity;BME280_pressure;Samples;Min_cycle;Max_cycle;Signal;HPM_P1;HPM_P2
2023/03/31 00:00:52;;;;;;;6.03;5.53;;;11.20;99.90;;;;;;6324806;28;20492;-62
2023/03/31 00:04:03;;;;;;;7.20;5.87;;;11.20;99.90;;;;;;6325216;28;20983;-62
2023/03/31 00:07:07;;;;;;;6.67;5.70;;;11.20;99.90;;;;;;6324966;28;20476;-61
2023/03/31 00:10:10;;;;;;;6.80;6.10;;;11.10;99.90;;;;;;6324856;28;20476;-61
2023/03/31 00:13:20;;;;;;;7.93;6.23;;;11.10;99.90;;;;;;6325494;28;20460;-61
2023/03/31 00:16:25;;;;;;;7.00;6.30;;;11.10;99.90;;;;;;6324898;28;20483;-62
2023/03/31 00:19:28;;;;;;;6.50;5.77;;;11.00;99.90;;;;;;6324708;28;20484;-62
2023/03/31 00:22:32;;;;;;;6.60;5.70;;;11.00;99.90;;;;;;6324602;28;20476;-62
2023/03/31 00:25:35;;;;;;;6.23;5.67;;;10.90;99.90;;;;;;6324333;28;20472;-62
2023/03/31 00:28:38;;;;;;;5.83;5.30;;;10.90;99.90;;;;;;6323711;28;20501;-62
2023/03/31 00:31:42;;;;;;;6.33;5.73;;;10.80;99.90;;;;;;6323367;28;20468;-62
2023/03/31 00:34:46;;;;;;;9.10;5.87;;;10.80;99.90;;;;;;6323280;28;20805;-63
2023/03/31 00:37:49;;;;;;;7.00;5.40;;;10.70;99.90;;;;;;6324475;28;20479;-62
2023/03/31 00:40:52;;;;;;;8.40;6.30;;;10.70;99.90;;;;;;6314923;28;20522;-61
2023/03/31 00:44:07;;;;;;;5.80;5.20;;;10.60;99.90;;;;;;6324340;28;20621;-60
2023/03/31 00:47:15;;;;;;;6.20;5.60;;;10.60;99.90;;;;;;6323965;28;20483;-61
2023/03/31 00:50:21;;;;;;;6.63;6.03;;;10.60;99.90;;;;;;6325019;28;20449;-61
2023/03/31 00:53:30;;;;;;;6.50;5.90;;;10.50;99.90;;;;;;6326162;28;20454;-61
2023/03/31 00:56:37;;;;;;;6.43;5.70;;;10.60;99.90;;;;;;6324720;28;20827;-61
2023/03/31 00:59:44;;;;;;;6.83;6.13;;;10.60;99.90;;;;;;6324148;28;20469;-61
2023/03/31 01:02:51;;;;;;;6.90;5.63;;;10.60;99.90;;;;;;6324303;28;20468;-62
2023/03/31 01:05:57;;;;;;;7.67;6.57;;;10.60;99.90;;;;;;6323820;28;20475;-61
2023/03/31 01:09:05;;;;;;;6.83;5.77;;;10.70;99.90;;;;;;6324335;28;20467;-61
2023/03/31 01:12:10;;;;;;;5.67;5.27;;;10.70;99.90;;;;;;6324206;28;20472;-61
2023/03/31 01:15:14;;;;;;;5.23;4.73;;;10.80;99.90;;;;;;6323965;28;20480;-61
2023/03/31 01:18:20;;;;;;;5.87;5.27;;;10.80;99.90;;;;;;6324130;28;20463;-61
2023/03/31 01:22:01;;;;;;;6.67;4.93;;;10.90;99.90;;;;;;6324205;28;20465;-61
2023/03/31 01:25:37;;;;;;;4.97;4.43;;;10.90;99.90;;;;;;6324028;28;20487;-62
2023/03/31 01:28:46;;;;;;;7.20;5.20;;;10.90;99.90;;;;;;6323760;28;20456;-62
2023/03/31 01:32:36;;;;;;;5.33;4.80;;;10.80;99.90;;;;;;6323367;28;20465;-62
2023/03/31 01:36:08;;;;;;;5.40;4.90;;;10.80;99.90;;;;;;6323694;28;20457;-61
2023/03/31 01:40:00;;;;;;;6.20;4.87;;;10.70;99.90;;;;;;6323817;28;20465;-60
2023/03/31 01:43:08;;;;;;;6.03;5.50;;;10.60;99.90;;;;;;6324784;28;20483;-60
2023/03/31 01:46:19;;;;;;;4.80;4.40;;;10.60;99.90;;;;;;6328305;28;20480;-60
2023/03/31 01:49:30;;;;;;;6.57;4.80;;;10.70;99.90;;;;;;6328349;28;20473;-60
2023/03/31 01:52:41;;;;;;;6.80;5.10;;;10.60;99.90;;;;;;6327945;28;20469;-60
2023/03/31 01:55:52;;;;;;;6.73;4.90;;;10.50;99.90;;;;;;6327600;28;20477;-61
2023/03/31 01:59:01;;;;;;;5.30;4.80;;;10.50;99.90;;;;;;6327871;28;20831;-60
2023/03/31 02:02:09;;;;;;;8.17;5.37;;;10.40;99.90;;;;;;6327951;28;20475;-61
2023/03/31 02:05:15;;;;;;;6.00;4.87;;;10.40;99.90;;;;;;6327915;28;20801;-60
2023/03/31 02:08:23;;;;;;;6.17;5.20;;;10.40;99.90;;;;;;6329424;28;20459;-60
2023/03/31 02:11:30;;;;;;;5.70;5.10;;;10.30;99.90;;;;;;6330662;28;20409;-61
2023/03/31 02:14:37;;;;;;;6.20;4.67;;;10.20;99.90;;;;;;6328144;28;20441;-61
2023/03/31 02:17:44;;;;;;;5.67;5.07;;;10.10;99.90;;;;;;6327919;28;20464;-60
2023/03/31 02:20:50;;;;;;;6.97;5.90;;;10.10;99.90;;;;;;6327525;28;20480;-61
2023/03/31 02:23:53;;;;;;;4.80;4.40;;;10.00;99.90;;;;;;6327760;28;20476;-61
2023/03/31 02:27:05;;;;;;;7.50;4.97;;;10.00;99.90;;;;;;6327411;28;20474;-61
2023/03/31 02:30:09;;;;;;;6.63;5.00;;;9.90;99.90;;;;;;6327128;28;20471;-60
2023/03/31 02:33:12;;;;;;;6.43;5.23;;;9.80;99.90;;;;;;6326914;28;20991;-60
2023/03/31 02:36:17;;;;;;;6.47;5.43;;;9.80;99.90;;;;;;6327063;28;20476;-60
2023/03/31 02:39:25;;;;;;;5.73;5.00;;;9.80;99.90;;;;;;6327138;28;20468;-60
2023/03/31 02:42:29;;;;;;;5.40;4.90;;;9.70;99.90;;;;;;6327112;28;20809;-61
2023/03/31 02:45:44;;;;;;;5.00;4.60;;;9.70;99.90;;;;;;6322190;28;20488;-61
2023/03/31 02:48:51;;;;;;;5.73;5.13;;;9.70;99.90;;;;;;6326886;28;20486;-61
2023/03/31 02:52:12;;;;;;;6.33;5.17;;;9.70;99.90;;;;;;6325900;28;20487;-61
2023/03/31 02:55:23;;;;;;;7.30;5.77;;;9.60;99.90;;;;;;6326366;28;20485;-61
2023/03/31 02:59:10;;;;;;;5.87;5.37;;;9.60;99.90;;;;;;6326714;28;20471;-61
2023/03/31 03:02:18;;;;;;;7.83;5.87;;;9.60;99.90;;;;;;6326387;28;20515;-60
2023/03/31 03:05:33;;;;;;;6.37;5.77;;;9.60;99.90;;;;;;6326397;28;20461;-61
2023/03/31 03:08:54;;;;;;;6.40;5.10;;;9.50;99.90;;;;;;6326972;28;20436;-61
2023/03/31 03:12:08;;;;;;;6.00;5.50;;;9.50;99.90;;;;;;6326616;28;20945;-61
2023/03/31 03:15:16;;;;;;;7.03;5.93;;;9.40;99.90;;;;;;6326142;28;20995;-60
2023/03/31 03:18:20;;;;;;;6.13;5.10;;;9.40;99.90;;;;;;6326438;28;20464;-61
2023/03/31 03:21:23;;;;;;;8.20;7.37;;;9.30;99.90;;;;;;6326704;28;20549;-61
2023/03/31 03:24:28;;;;;;;6.00;5.17;;;9.20;99.90;;;;;;6326234;28;20483;-61
2023/03/31 03:27:32;;;;;;;5.50;5.00;;;9.20;99.90;;;;;;6326440;28;20487;-61
2023/03/31 03:30:36;;;;;;;6.43;4.80;;;9.20;99.90;;;;;;6325823;28;20465;-62
2023/03/31 03:33:40;;;;;;;5.67;5.17;;;9.20;99.90;;;;;;6325863;28;20464;-62
2023/03/31 03:36:43;;;;;;;9.43;4.70;;;9.10;99.90;;;;;;6325475;28;20476;-62
2023/03/31 03:39:46;;;;;;;5.00;4.30;;;9.00;99.90;;;;;;6325605;28;20464;-60
2023/03/31 03:42:49;;;;;;;7.40;5.33;;;9.00;99.90;;;;;;6325403;28;20468;-61
2023/03/31 03:45:54;;;;;;;8.40;5.23;;;9.00;99.90;;;;;;6325432;28;20479;-61
2023/03/31 03:48:57;;;;;;;5.73;5.20;;;8.90;99.90;;;;;;6325129;28;20957;-60
2023/03/31 03:52:00;;;;;;;6.37;5.43;;;8.90;99.90;;;;;;6325334;28;20456;-61
2023/03/31 03:55:04;;;;;;;5.70;4.83;;;9.00;99.90;;;;;;6325096;28;20470;-61
2023/03/31 03:58:07;;;;;;;6.00;5.40;;;9.00;99.90;;;;;;6324930;28;20475;-60
2023/03/31 04:01:13;;;;;;;7.40;5.50;;;8.90;99.90;;;;;;6324968;28;20492;-60
2023/03/31 04:04:16;;;;;;;7.63;5.37;;;8.90;99.90;;;;;;6324249;28;20967;-60
2023/03/31 04:07:19;;;;;;;6.70;5.30;;;8.90;99.90;;;;;;6324877;28;20756;-61
2023/03/31 04:10:22;;;;;;;6.17;5.00;;;8.80;99.90;;;;;;6324870;28;20941;-61
2023/03/31 04:13:26;;;;;;;4.53;4.23;;;8.80;99.90;;;;;;6324828;28;20475;-61
2023/03/31 04:16:31;;;;;;;7.37;5.00;;;8.70;99.90;;;;;;6324647;28;20472;-60
2023/03/31 04:19:34;;;;;;;4.70;4.30;;;8.60;99.90;;;;;;6324933;28;20478;-60
2023/03/31 04:22:40;;;;;;;6.03;5.43;;;8.50;99.90;;;;;;6324336;28;20471;-60
2023/03/31 04:25:45;;;;;;;5.60;5.10;;;8.40;99.90;;;;;;6325729;28;20496;-60
2023/03/31 04:28:49;;;;;;;7.30;4.90;;;8.40;99.90;;;;;;6335007;28;20471;-60
2023/03/31 04:31:57;;;;;;;8.20;5.77;;;8.50;99.90;;;;;;6329964;28;20953;-60
2023/03/31 04:35:02;;;;;;;5.93;5.30;;;8.40;99.90;;;;;;6324393;28;20786;-60
2023/03/31 04:38:05;;;;;;;5.57;5.07;;;8.40;99.90;;;;;;6324725;28;20464;-60
2023/03/31 04:41:08;;;;;;;9.93;5.67;;;8.40;99.90;;;;;;6324792;28;20487;-60
2023/03/31 04:44:12;;;;;;;6.07;5.00;;;8.50;99.90;;;;;;6325137;28;20483;-60
2023/03/31 04:47:16;;;;;;;5.97;4.53;;;8.50;99.90;;;;;;6324373;28;20472;-60
2023/03/31 04:50:19;;;;;;;6.17;4.60;;;8.50;99.90;;;;;;6324278;28;20467;-60
2023/03/31 04:53:23;;;;;;;6.23;4.83;;;8.60;99.90;;;;;;6314651;28;20440;-60
2023/03/31 04:56:26;;;;;;;7.07;5.50;;;8.70;99.90;;;;;;6324127;28;20489;-60
2023/03/31 04:59:29;;;;;;;7.43;5.80;;;8.60;99.90;;;;;;6324286;28;20502;-60
2023/03/31 05:02:34;;;;;;;8.77;5.60;;;8.70;99.90;;;;;;6324313;28;20488;-60
2023/03/31 05:05:37;;;;;;;5.60;5.07;;;8.80;99.90;;;;;;6323968;28;20461;-60
2023/03/31 05:08:41;;;;;;;4.60;4.20;;;8.80;99.90;;;;;;6324463;28;20796;-60
2023/03/31 05:11:44;;;;;;;7.50;5.27;;;8.80;99.90;;;;;;6325053;28;20775;-60
2023/03/31 05:14:47;;;;;;;5.27;4.53;;;8.90;99.90;;;;;;6325770;28;20460;-60
2023/03/31 05:17:52;;;;;;;5.80;4.63;;;8.90;99.90;;;;;;6328879;28;20463;-60
2023/03/31 05:20:55;;;;;;;7.37;4.47;;;8.90;99.90;;;;;;6328898;28;20479;-60
2023/03/31 05:23:58;;;;;;;6.70;4.60;;;8.90;99.90;;;;;;6329089;28;20468;-60
2023/03/31 05:27:01;;;;;;;7.93;5.37;;;9.00;99.90;;;;;;6328638;28;20512;-60
2023/03/31 05:30:07;;;;;;;9.50;6.10;;;9.00;99.90;;;;;;6329042;28;20476;-60
2023/03/31 05:33:11;;;;;;;7.77;4.93;;;9.00;99.90;;;;;;6328251;28;20550;-60
2023/03/31 05:36:16;;;;;;;8.23;6.20;;;9.10;99.90;;;;;;6328608;28;20800;-60
2023/03/31 05:39:20;;;;;;;9.53;6.80;;;9.10;99.90;;;;;;6328481;28;20488;-60
2023/03/31 05:42:23;;;;;;;7.07;5.73;;;9.20;99.90;;;;;;6328294;28;20476;-61
2023/03/31 05:45:26;;;;;;;7.10;5.37;;;9.20;99.90;;;;;;6328403;28;20481;-61
2023/03/31 05:48:31;;;;;;;7.00;5.07;;;9.30;99.90;;;;;;6328353;28;20829;-60
2023/03/31 05:51:34;;;;;;;6.00;5.50;;;9.40;99.90;;;;;;6328236;28;20944;-60
2023/03/31 05:54:37;;;;;;;8.20;5.00;;;9.40;99.90;;;;;;6328225;28;20468;-61
2023/03/31 05:57:40;;;;;;;9.63;5.97;;;9.40;99.90;;;;;;6323621;28;20483;-61
2023/03/31 06:00:44;;;;;;;7.60;4.93;;;9.50;99.90;;;;;;6328080;28;20533;-58
2023/03/31 06:03:49;;;;;;;6.50;4.90;;;9.50;99.90;;;;;;6328137;28;20475;-59
2023/03/31 06:06:52;;;;;;;6.90;5.23;;;9.50;99.90;;;;;;6327543;28;20824;-60
2023/03/31 06:09:56;;;;;;;10.63;7.00;;;9.50;99.90;;;;;;6327832;28;20836;-60
2023/03/31 06:12:59;;;;;;;19.00;7.37;;;9.60;99.90;;;;;;6327649;28;20472;-60
2023/03/31 06:16:02;;;;;;;9.20;5.50;;;9.70;99.90;;;;;;6327592;28;20510;-61
2023/03/31 06:19:07;;;;;;;5.20;4.57;;;9.80;99.90;;;;;;6327505;28;20792;-60
2023/03/31 06:22:11;;;;;;;9.80;4.60;;;9.90;99.90;;;;;;6327566;28;20507;-60
2023/03/31 06:25:14;;;;;;;9.87;5.70;;;9.90;99.90;;;;;;6327355;28;20472;-60
2023/03/31 06:28:17;;;;;;;9.57;5.30;;;9.90;99.90;;;;;;6326560;28;20812;-60
2023/03/31 06:31:22;;;;;;;6.03;5.17;;;10.00;99.90;;;;;;6327423;28;20996;-60
2023/03/31 06:34:27;;;;;;;7.40;4.80;;;10.10;99.90;;;;;;6327252;28;20941;-62
2023/03/31 06:37:30;;;;;;;6.70;4.60;;;10.20;99.90;;;;;;6327502;28;20487;-61
2023/03/31 06:40:33;;;;;;;5.10;4.70;;;10.20;99.90;;;;;;6326858;28;20473;-60
2023/03/31 06:43:37;;;;;;;5.70;4.83;;;10.40;99.90;;;;;;6327071;28;20491;-60
2023/03/31 06:46:40;;;;;;;6.20;5.43;;;10.60;99.90;;;;;;6330451;28;20483;-60
2023/03/31 06:49:45;;;;;;;6.90;5.00;;;10.80;99.90;;;;;;6334966;28;20851;-59
2023/03/31 06:52:51;;;;;;;6.93;4.77;;;11.10;99.90;;;;;;6327111;28;20464;-60
2023/03/31 06:55:55;;;;;;;6.00;5.23;;;11.40;99.90;;;;;;6326388;28;20799;-60
2023/03/31 06:58:58;;;;;;;8.00;5.80;;;11.90;99.90;;;;;;6326514;28;20476;-60
2023/03/31 07:02:01;;;;;;;7.50;5.70;;;12.50;99.90;;;;;;6326232;28;20472;-59
2023/03/31 07:05:07;;;;;;;7.57;5.70;;;13.50;99.90;;;;;;6326063;28;20472;-60
2023/03/31 07:08:10;;;;;;;6.23;5.20;;;14.10;99.90;;;;;;6326047;28;20487;-60
2023/03/31 07:11:13;;;;;;;7.20;6.57;;;14.70;99.20;;;;;;6326059;28;20468;-60
2023/03/31 07:14:16;;;;;;;8.43;6.33;;;16.00;96.60;;;;;;6326057;28;20949;-59
2023/03/31 07:17:20;;;;;;;7.20;6.50;;;17.10;93.80;;;;;;6326176;28;20472;-60
2023/03/31 07:20:24;;;;;;;9.37;6.60;;;17.90;92.40;;;;;;6326287;28;20455;-60
2023/03/31 07:23:27;;;;;;;6.43;5.80;;;19.10;90.50;;;;;;6325857;28;20802;-60
2023/03/31 07:26:31;;;;;;;8.93;6.50;;;20.70;81.10;;;;;;6326264;28;20226;-60
2023/03/31 07:29:34;;;;;;;6.37;5.87;;;21.80;74.10;;;;;;6326477;28;20198;-60
2023/03/31 07:32:39;;;;;;;7.23;6.60;;;23.40;67.10;;;;;;6325638;28;20198;-61
2023/03/31 07:35:44;;;;;;;6.43;5.83;;;24.90;59.30;;;;;;6325539;28;20636;-61
2023/03/31 07:38:53;;;;;;;6.77;6.13;;;25.10;56.20;;;;;;6325301;28;20364;-62
2023/03/31 07:41:57;;;;;;;8.23;7.43;;;25.30;52.90;;;;;;6325002;28;20248;-62
2023/03/31 07:45:01;;;;;;;7.90;7.20;;;25.30;50.10;;;;;;6307962;28;20554;-62
2023/03/31 07:48:04;;;;;;;8.30;7.60;;;24.40;50.60;;;;;;6305286;28;20313;-62
2023/03/31 07:51:09;;;;;;;7.00;6.40;;;23.40;51.60;;;;;;6325521;28;20244;-62
2023/03/31 07:54:12;;;;;;;8.93;7.27;;;22.60;53.20;;;;;;6326007;28;20233;-63
2023/03/31 07:57:18;;;;;;;8.50;6.97;;;22.50;54.50;;;;;;6324684;28;20555;-62
2023/03/31 08:00:21;;;;;;;9.30;7.60;;;22.80;54.20;;;;;;6324501;28;20229;-62
2023/03/31 08:03:25;;;;;;;8.47;7.30;;;23.90;53.10;;;;;;6324637;28;20252;-61
2023/03/31 08:06:30;;;;;;;9.97;7.73;;;24.50;50.90;;;;;;6324582;28;20245;-62
2023/03/31 08:09:33;;;;;;;7.17;6.47;;;24.10;50.50;;;;;;6324898;28;20241;-61
2023/03/31 08:12:36;;;;;;;7.40;6.70;;;23.60;51.00;;;;;;6324225;28;20218;-62
2023/03/31 08:15:39;;;;;;;6.83;6.20;;;23.20;51.80;;;;;;6323168;28;20234;-62
2023/03/31 08:18:42;;;;;;;8.90;6.00;;;23.10;51.00;;;;;;6323487;28;20322;-60
2023/03/31 08:21:47;;;;;;;5.93;5.33;;;22.30;51.10;;;;;;6323918;28;20715;-61
2023/03/31 08:24:50;;;;;;;5.93;4.60;;;20.90;53.50;;;;;;6323673;28;20245;-62
2023/03/31 08:27:54;;;;;;;5.30;4.80;;;20.10;55.20;;;;;;6324227;28;20234;-63
2023/03/31 08:31:04;;;;;;;5.03;4.50;;;19.80;56.50;;;;;;6324142;28;20244;-65
2023/03/31 08:34:08;;;;;;;4.40;4.00;;;19.00;58.10;;;;;;6323811;28;20540;-62
2023/03/31 08:37:12;;;;;;;4.90;4.30;;;18.40;59.50;;;;;;6323828;28;20230;-65
2023/03/31 08:40:20;;;;;;;4.50;3.90;;;18.40;60.80;;;;;;6323920;28;20230;-63
2023/03/31 08:43:31;;;;;;;5.10;4.60;;;19.20;61.00;;;;;;6324307;28;20240;-64
2023/03/31 08:46:35;;;;;;;5.43;4.37;;;19.80;58.90;;;;;;6324380;28;20238;-64
2023/03/31 08:49:45;;;;;;;5.43;4.93;;;20.10;58.10;;;;;;6327351;28;20230;-62
2023/03/31 08:52:56;;;;;;;8.00;4.60;;;20.50;57.50;;;;;;6333478;28;20225;-62
2023/03/31 08:56:00;;;;;;;6.60;4.53;;;20.60;56.90;;;;;;6332753;28;20325;-63
2023/03/31 08:59:04;;;;;;;4.90;4.50;;;20.80;56.30;;;;;;6333033;28;20312;-64
2023/03/31 09:02:19;;;;;;;10.90;4.40;;;21.10;55.90;;;;;;6333216;28;20608;-63
2023/03/31 09:05:43;;;;;;;6.87;3.90;;;21.70;55.00;;;;;;6332610;28;20222;-63
2023/03/31 09:09:09;;;;;;;8.83;4.30;;;22.00;54.10;;;;;;6330604;28;20227;-62
2023/03/31 09:12:17;;;;;;;4.50;4.10;;;22.40;53.00;;;;;;6334756;28;20233;-63
2023/03/31 09:15:26;;;;;;;5.17;4.67;;;24.90;52.00;;;;;;6332425;28;20230;-64
2023/03/31 09:18:34;;;;;;;4.93;4.43;;;27.90;43.90;;;;;;6332201;28;20544;-63
2023/03/31 09:21:41;;;;;;;6.18;4.35;;;31.00;37.80;;;;;;6331756;28;20587;-64
2023/03/31 09:24:58;;;;;;;4.45;4.05;;;33.90;30.60;;;;;;6331692;28;20240;-64
2023/03/31 09:28:05;;;;;;;6.07;4.00;;;37.00;27.60;;;;;;6314627;28;20248;-64
2023/03/31 09:31:14;;;;;;;4.07;3.67;;;39.50;23.40;;;;;;6306743;28;20460;-65
2023/03/31 09:34:24;;;;;;;4.78;4.32;;;41.90;20.90;;;;;;6306822;28;20226;-65
2023/03/31 09:37:31;;;;;;;5.90;4.03;;;42.70;18.70;;;;;;6306838;28;20249;-65
2023/03/31 09:40:36;;;;;;;3.65;3.30;;;40.40;19.20;;;;;;6307038;28;20230;-66
2023/03/31 09:43:41;;;;;;;3.75;2.80;;;39.70;19.70;;;;;;6306632;28;20226;-65
2023/03/31 09:46:44;;;;;;;3.53;2.63;;;40.00;18.80;;;;;;6306327;28;20572;-66
2023/03/31 09:49:47;;;;;;;2.97;2.47;;;39.70;19.00;;;;;;6314029;28;20311;-63
2023/03/31 09:52:57;;;;;;;9.30;2.67;;;39.70;18.70;;;;;;6331690;28;20568;-63
2023/03/31 09:56:04;;;;;;;2.65;2.45;;;38.70;19.10;;;;;;6331425;28;20331;-62
2023/03/31 09:59:14;;;;;;;3.13;2.53;;;36.20;20.50;;;;;;6331818;28;20283;-61
2023/03/31 10:02:36;;;;;;;2.67;2.47;;;35.20;21.80;;;;;;6327197;28;20541;-61
2023/03/31 10:05:48;;;;;;;2.60;2.40;;;36.20;21.20;;;;;;6327496;28;20287;-61
2023/03/31 10:08:56;;;;;;;2.50;2.30;;;34.00;22.80;;;;;;6327367;28;20233;-60
2023/03/31 10:12:05;;;;;;;2.92;2.67;;;30.90;26.00;;;;;;6323025;28;20248;-60
2023/03/31 10:15:20;;;;;;;3.90;3.03;;;28.40;28.60;;;;;;6327279;28;20230;-65
2023/03/31 10:18:33;;;;;;;3.67;3.00;;;26.60;31.20;;;;;;6327438;28;20237;-62
2023/03/31 10:21:38;;;;;;;2.90;2.63;;;24.90;34.70;;;;;;6327695;28;20233;-64
2023/03/31 10:24:43;;;;;;;3.70;3.03;;;22.90;36.70;;;;;;6327304;28;20671;-63
2023/03/31 10:27:51;;;;;;;3.50;3.20;;;21.70;39.00;;;;;;6327108;28;20540;-62
2023/03/31 10:31:00;;;;;;;3.17;2.87;;;21.40;40.20;;;;;;6327349;28;20234;-61
2023/03/31 10:34:07;;;;;;;3.63;2.77;;;21.00;42.20;;;;;;6327217;28;20226;-62
2023/03/31 10:37:17;;;;;;;5.10;2.37;;;20.20;43.80;;;;;;6327128;28;20230;-63
2023/03/31 10:40:23;;;;;;;3.23;2.20;;;19.40;45.90;;;;;;6326755;28;20256;-64
2023/03/31 10:43:30;;;;;;;2.90;2.60;;;18.80;47.60;;;;;;6326986;28;20226;-64
2023/03/31 10:46:42;;;;;;;2.57;2.37;;;18.50;48.80;;;;;;6327097;28;20230;-62
2023/03/31 10:49:51;;;;;;;3.00;2.73;;;18.10;50.10;;;;;;6326621;28;20234;-64
2023/03/31 10:53:03;;;;;;;3.50;2.00;;;17.90;50.70;;;;;;6327015;28;20234;-64
2023/03/31 10:56:16;;;;;;;3.10;2.60;;;17.80;52.20;;;;;;6326085;28;20483;-62
2023/03/31 10:59:39;;;;;;;2.90;2.67;;;17.70;52.70;;;;;;6323668;28;20215;-61
2023/03/31 11:03:10;;;;;;;3.10;2.60;;;17.50;53.50;;;;;;6316461;28;20782;-61
2023/03/31 11:06:22;;;;;;;2.87;2.50;;;17.60;53.70;;;;;;6326395;28;20475;-62
2023/03/31 11:09:40;;;;;;;4.33;2.20;;;17.50;54.40;;;;;;6326151;28;20509;-61
2023/03/31 11:12:51;;;;;;;6.40;2.87;;;17.50;55.70;;;;;;6326949;28;20483;-62
2023/03/31 11:16:07;;;;;;;2.90;2.70;;;17.50;55.70;;;;;;6329303;28;20473;-63
2023/03/31 11:19:21;;;;;;;3.53;2.93;;;17.70;56.10;;;;;;6326133;28;20846;-62
2023/03/31 11:22:31;;;;;;;3.37;2.97;;;18.30;55.70;;;;;;6325241;28;20465;-64
2023/03/31 11:25:40;;;;;;;2.73;2.53;;;19.00;54.20;;;;;;6307429;28;20485;-61
2023/03/31 11:29:02;;;;;;;4.40;2.20;;;19.60;52.20;;;;;;6309675;28;20231;-63
2023/03/31 11:32:35;;;;;;;2.43;2.13;;;20.00;47.60;;;;;;6300511;28;20235;-61
2023/03/31 11:35:53;;;;;;;1.53;1.40;;;20.40;46.40;;;;;;6300630;28;20219;-61
2023/03/31 11:39:12;;;;;;;2.13;1.80;;;20.80;45.20;;;;;;6300230;28;20308;-61
2023/03/31 11:42:20;;;;;;;3.20;1.47;;;21.20;44.70;;;;;;6300464;28;20238;-61
2023/03/31 11:45:28;;;;;;;2.23;1.60;;;21.50;44.00;;;;;;6299857;28;20235;-60
2023/03/31 11:48:41;;;;;;;2.70;1.20;;;21.90;43.00;;;;;;6300339;28;20231;-63
2023/03/31 11:51:52;;;;;;;1.57;1.40;;;22.20;41.20;;;;;;6323764;28;20237;-61
2023/03/31 11:54:58;;;;;;;2.10;1.70;;;22.00;41.00;;;;;;6325385;28;20226;-64
2023/03/31 11:58:10;;;;;;;6.10;1.70;;;22.00;41.20;;;;;;6325240;28;20230;-63
2023/03/31 12:01:21;;;;;;;2.33;2.13;;;22.20;41.20;;;;;;6325069;28;20234;-63
2023/03/31 12:04:34;;;;;;;2.60;1.87;;;22.50;40.60;;;;;;6322297;28;20238;-61
2023/03/31 12:07:43;;;;;;;2.50;1.63;;;22.90;40.50;;;;;;6307800;28;20229;-61
2023/03/31 12:10:52;;;;;;;2.87;1.70;;;23.30;40.80;;;;;;6307904;28;20223;-61
2023/03/31 12:14:05;;;;;;;2.90;2.10;;;23.60;39.30;;;;;;6313074;28;20656;-62
2023/03/31 12:17:12;;;;;;;3.20;2.00;;;23.80;39.50;;;;;;6311379;28;20222;-62
2023/03/31 12:20:25;;;;;;;5.00;2.80;;;23.50;39.90;;;;;;6310199;28;20223;-61
2023/03/31 12:23:31;;;;;;;2.97;2.60;;;21.80;42.40;;;;;;6313583;28;20613;-60
2023/03/31 12:26:44;;;;;;;2.87;2.40;;;21.20;43.50;;;;;;6324192;28;20245;-61
2023/03/31 12:29:54;;;;;;;3.37;3.07;;;20.90;44.40;;;;;;6324733;28;20234;-61
2023/03/31 12:33:04;;;;;;;2.93;2.63;;;20.90;45.40;;;;;;6324686;28;20236;-61
2023/03/31 12:36:24;;;;;;;3.60;2.27;;;20.90;45.00;;;;;;6323991;28;20229;-61
2023/03/31 12:39:39;;;;;;;4.40;2.13;;;20.70;45.00;;;;;;6315638;28;20364;-61
2023/03/31 12:43:06;;;;;;;4.10;2.07;;;20.50;45.40;;;;;;6315605;28;20214;-61
2023/03/31 12:46:24;;;;;;;3.93;2.30;;;20.70;45.60;;;;;;6315682;28;20683;-61
2023/03/31 12:49:41;;;;;;;2.60;2.10;;;20.20;45.70;;;;;;6304063;28;20676;-61
2023/03/31 12:52:52;;;;;;;2.47;2.27;;;20.00;46.10;;;;;;6324070;28;20230;-62
2023/03/31 12:55:57;;;;;;;3.07;2.60;;;20.00;46.20;;;;;;6323422;28;20226;-61
2023/03/31 12:59:18;;;;;;;2.33;2.13;;;20.00;46.30;;;;;;6324047;28;20626;-60
2023/03/31 13:02:24;;;;;;;2.80;2.07;;;20.10;46.20;;;;;;6317455;28;20233;-61
2023/03/31 13:05:49;;;;;;;4.40;3.47;;;20.30;46.00;;;;;;6317549;28;20222;-61
2023/03/31 13:08:56;;;;;;;2.80;2.17;;;20.40;46.30;;;;;;6317801;28;20535;-61
2023/03/31 13:12:06;;;;;;;3.07;1.50;;;20.70;45.50;;;;;;6323880;28;20561;-62
2023/03/31 13:15:14;;;;;;;1.70;1.50;;;20.60;45.20;;;;;;6305796;28;20223;-61
2023/03/31 13:18:21;;;;;;;2.60;2.00;;;20.60;44.00;;;;;;6323704;28;20675;-63
2023/03/31 13:21:25;;;;;;;2.23;2.00;;;20.50;44.70;;;;;;6309726;28;20287;-63
2023/03/31 13:24:31;;;;;;;1.80;1.70;;;20.30;45.10;;;;;;6317940;28;20230;-63
2023/03/31 13:27:34;;;;;;;4.20;1.73;;;19.80;44.80;;;;;;6322991;28;20238;-63
2023/03/31 13:30:49;;;;;;;1.70;1.60;;;20.00;44.50;;;;;;6315009;28;20237;-62
2023/03/31 13:33:56;;;;;;;2.80;2.60;;;20.40;44.20;;;;;;6309799;28;20223;-62
2023/03/31 13:37:17;;;;;;;2.20;1.50;;;20.70;42.30;;;;;;6313674;28;20219;-62
2023/03/31 13:41:05;;;;;;;1.87;1.57;;;20.60;42.50;;;;;;6313695;28;20237;-63
2023/03/31 13:44:40;;;;;;;2.40;2.20;;;20.70;42.20;;;;;;6212038;28;20863;-62
2023/03/31 13:48:10;;;;;;;3.20;2.43;;;20.30;42.40;;;;;;6315952;28;20527;-62
2023/03/31 13:51:31;;;;;;;3.20;1.80;;;20.00;42.90;;;;;;6325787;28;20283;-61
2023/03/31 13:55:19;;;;;;;1.70;1.60;;;19.50;43.60;;;;;;6328049;28;20242;-60
2023/03/31 13:59:07;;;;;;;2.90;1.50;;;19.10;44.30;;;;;;6327962;28;20241;-60
2023/03/31 14:02:59;;;;;;;2.60;2.00;;;19.00;44.80;;;;;;6281919;28;20225;-61
2023/03/31 14:06:06;;;;;;;3.43;1.70;;;19.00;45.10;;;;;;6226281;28;20243;-60
2023/03/31 14:09:17;;;;;;;2.60;1.60;;;18.90;45.40;;;;;;6227272;28;20315;-60
2023/03/31 14:12:22;;;;;;;1.90;1.77;;;18.90;45.70;;;;;;6328117;28;20230;-60
2023/03/31 14:15:26;;;;;;;2.47;1.77;;;18.80;45.80;;;;;;6327645;28;20806;-62
2023/03/31 14:18:34;;;;;;;1.90;1.80;;;18.80;45.80;;;;;;6309174;28;20227;-61
2023/03/31 14:21:43;;;;;;;2.03;1.53;;;18.60;46.00;;;;;;6302041;28;20238;-60
2023/03/31 14:24:54;;;;;;;2.40;1.50;;;18.70;46.30;;;;;;6302000;28;20231;-61
2023/03/31 14:28:07;;;;;;;2.00;1.80;;;18.70;46.10;;;;;;6297222;28;20680;-60
2023/03/31 14:31:19;;;;;;;8.37;7.57;;;18.60;46.10;;;;;;6302228;28;20285;-60
2023/03/31 14:34:52;;;;;;;4.10;2.63;;;18.50;46.20;;;;;;6302095;28;20231;-61
2023/03/31 14:37:57;;;;;;;1.60;1.50;;;18.40;46.70;;;;;;6302268;28;20227;-61
2023/03/31 14:41:00;;;;;;;2.23;2.00;;;18.40;46.80;;;;;;6301929;28;20227;-61
2023/03/31 14:44:06;;;;;;;2.00;1.80;;;18.40;47.00;;;;;;6302313;28;20249;-62
2023/03/31 14:47:14;;;;;;;2.90;2.27;;;18.70;47.00;;;;;;6312470;28;20222;-65
2023/03/31 14:50:19;;;;;;;2.47;2.20;;;18.80;48.60;;;;;;6326406;28;20225;-63
2023/03/31 14:53:25;;;;;;;3.23;2.10;;;18.90;49.10;;;;;;6326199;28;20249;-62
2023/03/31 14:56:33;;;;;;;2.50;2.30;;;19.00;48.70;;;;;;6325003;28;20241;-62
2023/03/31 14:59:38;;;;;;;3.00;2.20;;;18.80;48.50;;;;;;6325270;28;20194;-64
2023/03/31 15:02:44;;;;;;;4.47;2.10;;;18.70;48.40;;;;;;6325336;28;20209;-62
2023/03/31 15:05:49;;;;;;;3.60;2.20;;;18.60;48.80;;;;;;6325444;28;20237;-61
2023/03/31 15:08:56;;;;;;;2.53;2.07;;;18.60;49.10;;;;;;6326044;28;20224;-64
2023/03/31 15:12:01;;;;;;;2.73;2.00;;;18.50;49.80;;;;;;6325894;28;20381;-63
2023/03/31 15:15:07;;;;;;;2.87;2.57;;;18.50;50.10;;;;;;6326358;28;20222;-63
2023/03/31 15:18:12;;;;;;;4.50;2.23;;;18.50;50.30;;;;;;6325690;28;20687;-62
2023/03/31 15:21:25;;;;;;;3.43;2.40;;;18.40;49.70;;;;;;6326750;28;20301;-62
2023/03/31 15:24:29;;;;;;;3.10;2.23;;;18.20;50.40;;;;;;6325688;28;20225;-64
2023/03/31 15:27:36;;;;;;;26.23;13.73;;;17.90;51.10;;;;;;6325784;28;20585;-63
2023/03/31 15:30:40;;;;;;;38.13;26.20;;;18.00;51.60;;;;;;6316598;28;20475;-62
2023/03/31 15:33:43;;;;;;;18.67;16.60;;;18.00;51.70;;;;;;6316227;28;20226;-61
2023/03/31 15:36:48;;;;;;;28.63;20.30;;;17.90;52.20;;;;;;6311524;28;20474;-61
2023/03/31 15:39:51;;;;;;;4.77;3.73;;;17.70;52.10;;;;;;6314259;28;20268;-61
2023/03/31 15:42:57;;;;;;;9.17;7.10;;;17.70;52.00;;;;;;6325071;28;21214;-61
2023/03/31 15:46:20;;;;;;;6.67;6.07;;;17.50;52.60;;;;;;6321907;28;20473;-61
2023/03/31 15:49:25;;;;;;;6.20;5.63;;;17.30;52.90;;;;;;6305841;28;20555;-61
2023/03/31 15:52:34;;;;;;;7.40;5.27;;;17.20;53.20;;;;;;6334452;28;20463;-62
2023/03/31 15:55:41;;;;;;;7.50;6.80;;;17.10;53.50;;;;;;6349471;28;20482;-62
2023/03/31 15:58:52;;;;;;;5.70;5.00;;;17.20;53.70;;;;;;6324120;28;20480;-62
2023/03/31 16:01:58;;;;;;;3.47;2.43;;;17.20;53.80;;;;;;6324960;28;20801;-61
2023/03/31 16:05:03;;;;;;;6.63;6.13;;;17.10;53.50;;;;;;6315338;28;20552;-62
2023/03/31 16:08:17;;;;;;;4.33;3.93;;;17.20;53.90;;;;;;6299067;28;20473;-62
2023/03/31 16:11:25;;;;;;;4.13;3.73;;;17.20;53.50;;;;;;6298180;28;20476;-62
2023/03/31 16:14:32;;;;;;;3.63;2.60;;;17.10;54.20;;;;;;6299134;28;20445;-62
2023/03/31 16:17:41;;;;;;;2.47;2.20;;;16.90;54.50;;;;;;6298596;28;20457;-63
2023/03/31 16:20:53;;;;;;;4.37;2.50;;;17.00;54.50;;;;;;6299288;28;20454;-63
2023/03/31 16:23:59;;;;;;;4.07;3.10;;;17.00;55.40;;;;;;6317721;28;20465;-62